sensor_id;sensor_type;location;lat;lon;timestamp;P1;durP1;ratioP1;P2;durP2;ratioP2
53644;SDS011;39547;45.554;12.068;2023-02-20T00:02:30;138.18;;;60.88;;
53644;SDS011;39547;45.554;12.068;2023-02-20T00:08:31;158.60;;;67.82;;
53644;SDS011;39547;45.554;12.068;2023-02-20T00:14:33;155.40;;;68.57;;
53644;SDS011;39547;45.554;12.068;2023-02-20T00:20:34;165.30;;;65.65;;
53644;SDS011;39547;45.554;12.068;2023-02-20T00:26:37;128.48;;;56.33;;
53644;SDS011;39547;45.554;12.068;2023-02-20T00:32:38;142.98;;;59.00;;
53644;SDS011;39547;45.554;12.068;2023-02-20T00:38:41;175.52;;;71.28;;
53644;SDS011;39547;45.554;12.068;2023-02-20T00:44:44;135.20;;;55.93;;
53644;SDS011;39547;45.554;12.068;2023-02-20T00:50:45;130.82;;;57.05;;
53644;SDS011;39547;45.554;12.068;2023-02-20T00:56:48;150.23;;;62.22;;
53644;SDS011;39547;45.554;12.068;2023-02-20T01:02:49;187.60;;;69.20;;
53644;SDS011;39547;45.554;12.068;2023-02-20T01:08:51;153.13;;;62.60;;
53644;SDS011;39547;45.554;12.068;2023-02-20T01:14:54;200.25;;;76.18;;
53644;SDS011;39547;45.554;12.068;2023-02-20T01:20:56;144.43;;;64.75;;
53644;SDS011;39547;45.554;12.068;2023-02-20T01:26:57;147.70;;;66.13;;
53644;SDS011;39547;45.554;12.068;2023-02-20T01:32:59;121.45;;;56.90;;
53644;SDS011;39547;45.554;12.068;2023-02-20T01:39:00;119.97;;;54.78;;
53644;SDS011;39547;45.554;12.068;2023-02-20T01:51:36;101.90;;;50.63;;
53644;SDS011;39547;45.554;12.068;2023-02-20T01:57:50;96.25;;;46.72;;
53644;SDS011;39547;45.554;12.068;2023-02-20T02:03:55;100.55;;;49.15;;
53644;SDS011;39547;45.554;12.068;2023-02-20T02:10:03;116.50;;;54.63;;
53644;SDS011;39547;45.554;12.068;2023-02-20T02:48:33;133.77;;;59.10;;
53644;SDS011;39547;45.554;12.068;2023-02-20T02:54:39;113.57;;;54.50;;
53644;SDS011;39547;45.554;12.068;2023-02-20T03:00:42;126.38;;;54.92;;
53644;SDS011;39547;45.554;12.068;2023-02-20T03:06:53;118.80;;;53.83;;
53644;SDS011;39547;45.554;12.068;2023-02-20T03:13:03;116.50;;;50.92;;
53644;SDS011;39547;45.554;12.068;2023-02-20T03:19:06;117.37;;;51.83;;
53644;SDS011;39547;45.554;12.068;2023-02-20T03:31:40;114.72;;;51.17;;
53644;SDS011;39547;45.554;12.068;2023-02-20T03:37:48;119.43;;;51.92;;
53644;SDS011;39547;45.554;12.068;2023-02-20T03:44:09;115.97;;;51.33;;
53644;SDS011;39547;45.554;12.068;2023-02-20T03:50:15;138.23;;;56.80;;
53644;SDS011;39547;45.554;12.068;2023-02-20T03:56:20;108.30;;;47.95;;
53644;SDS011;39547;45.554;12.068;2023-02-20T04:02:28;126.00;;;53.00;;
53644;SDS011;39547;45.554;12.068;2023-02-20T04:08:37;108.72;;;48.97;;
53644;SDS011;39547;45.554;12.068;2023-02-20T04:14:46;112.75;;;51.22;;
53644;SDS011;39547;45.554;12.068;2023-02-20T04:20:51;119.63;;;51.93;;
53644;SDS011;39547;45.554;12.068;2023-02-20T04:27:04;122.15;;;53.20;;
53644;SDS011;39547;45.554;12.068;2023-02-20T04:33:09;121.95;;;52.45;;
53644;SDS011;39547;45.554;12.068;2023-02-20T04:45:15;115.72;;;49.50;;
53644;SDS011;39547;45.554;12.068;2023-02-20T04:51:20;128.20;;;54.88;;
53644;SDS011;39547;45.554;12.068;2023-02-20T04:57:22;119.20;;;51.40;;
53644;SDS011;39547;45.554;12.068;2023-02-20T05:03:24;100.88;;;46.55;;
53644;SDS011;39547;45.554;12.068;2023-02-20T05:09:25;99.20;;;46.20;;
53644;SDS011;39547;45.554;12.068;2023-02-20T05:15:28;107.20;;;47.58;;
53644;SDS011;39547;45.554;12.068;2023-02-20T05:21:30;109.55;;;47.85;;
53644;SDS011;39547;45.554;12.068;2023-02-20T05:27:50;106.15;;;47.60;;
53644;SDS011;39547;45.554;12.068;2023-02-20T05:33:51;109.05;;;49.08;;
53644;SDS011;39547;45.554;12.068;2023-02-20T05:39:52;107.75;;;48.22;;
53644;SDS011;39547;45.554;12.068;2023-02-20T05:45:54;103.60;;;45.42;;
53644;SDS011;39547;45.554;12.068;2023-02-20T05:51:56;96.30;;;42.38;;
53644;SDS011;39547;45.554;12.068;2023-02-20T05:57:58;104.28;;;44.63;;
53644;SDS011;39547;45.554;12.068;2023-02-20T06:03:59;99.38;;;44.17;;
53644;SDS011;39547;45.554;12.068;2023-02-20T06:10:01;107.55;;;47.65;;
53644;SDS011;39547;45.554;12.068;2023-02-20T06:16:03;110.18;;;48.10;;
53644;SDS011;39547;45.554;12.068;2023-02-20T06:22:05;92.72;;;43.10;;
53644;SDS011;39547;45.554;12.068;2023-02-20T06:28:06;92.32;;;43.50;;
53644;SDS011;39547;45.554;12.068;2023-02-20T06:34:08;92.30;;;44.70;;
53644;SDS011;39547;45.554;12.068;2023-02-20T06:40:09;96.25;;;44.75;;
53644;SDS011;39547;45.554;12.068;2023-02-20T06:46:11;102.50;;;45.60;;
53644;SDS011;39547;45.554;12.068;2023-02-20T06:52:13;88.32;;;42.97;;
53644;SDS011;39547;45.554;12.068;2023-02-20T06:58:14;94.40;;;43.88;;
53644;SDS011;39547;45.554;12.068;2023-02-20T07:10:19;90.78;;;42.05;;
53644;SDS011;39547;45.554;12.068;2023-02-20T07:16:20;88.32;;;41.40;;
53644;SDS011;39547;45.554;12.068;2023-02-20T07:22:21;98.60;;;44.80;;
53644;SDS011;39547;45.554;12.068;2023-02-20T07:28:23;97.07;;;42.65;;
53644;SDS011;39547;45.554;12.068;2023-02-20T07:34:24;86.63;;;40.30;;
53644;SDS011;39547;45.554;12.068;2023-02-20T07:40:26;86.90;;;40.22;;
53644;SDS011;39547;45.554;12.068;2023-02-20T07:46:27;80.70;;;39.90;;
53644;SDS011;39547;45.554;12.068;2023-02-20T07:52:33;80.20;;;37.22;;
53644;SDS011;39547;45.554;12.068;2023-02-20T07:58:34;82.93;;;38.95;;
53644;SDS011;39547;45.554;12.068;2023-02-20T08:04:36;85.10;;;38.78;;
53644;SDS011;39547;45.554;12.068;2023-02-20T08:10:37;77.45;;;35.63;;
53644;SDS011;39547;45.554;12.068;2023-02-20T08:16:39;84.25;;;37.85;;
53644;SDS011;39547;45.554;12.068;2023-02-20T08:22:40;81.70;;;36.75;;
53644;SDS011;39547;45.554;12.068;2023-02-20T08:28:45;79.53;;;34.65;;
53644;SDS011;39547;45.554;12.068;2023-02-20T08:34:47;72.45;;;33.60;;
53644;SDS011;39547;45.554;12.068;2023-02-20T08:40:48;69.05;;;32.53;;
53644;SDS011;39547;45.554;12.068;2023-02-20T08:46:50;65.63;;;30.23;;
53644;SDS011;39547;45.554;12.068;2023-02-20T08:52:52;71.18;;;32.03;;
53644;SDS011;39547;45.554;12.068;2023-02-20T08:58:53;61.38;;;29.20;;
53644;SDS011;39547;45.554;12.068;2023-02-20T09:04:55;65.20;;;29.40;;
53644;SDS011;39547;45.554;12.068;2023-02-20T09:10:57;58.53;;;27.63;;
53644;SDS011;39547;45.554;12.068;2023-02-20T09:16:59;56.70;;;27.83;;
53644;SDS011;39547;45.554;12.068;2023-02-20T09:23:00;60.97;;;28.23;;
53644;SDS011;39547;45.554;12.068;2023-02-20T09:29:02;53.33;;;26.50;;
53644;SDS011;39547;45.554;12.068;2023-02-20T09:35:03;54.42;;;24.95;;
53644;SDS011;39547;45.554;12.068;2023-02-20T09:41:05;56.33;;;27.80;;
53644;SDS011;39547;45.554;12.068;2023-02-20T09:47:40;53.10;;;26.00;;
53644;SDS011;39547;45.554;12.068;2023-02-20T10:00:08;47.78;;;24.20;;
53644;SDS011;39547;45.554;12.068;2023-02-20T10:06:18;47.95;;;23.15;;
53644;SDS011;39547;45.554;12.068;2023-02-20T10:25:08;45.22;;;22.33;;
53644;SDS011;39547;45.554;12.068;2023-02-20T10:37:39;39.03;;;18.55;;
53644;SDS011;39547;45.554;12.068;2023-02-20T10:43:46;41.72;;;20.73;;
53644;SDS011;39547;45.554;12.068;2023-02-20T10:49:56;48.03;;;23.70;;
53644;SDS011;39547;45.554;12.068;2023-02-20T10:56:11;44.67;;;22.75;;
53644;SDS011;39547;45.554;12.068;2023-02-20T11:02:32;44.03;;;21.70;;
53644;SDS011;39547;45.554;12.068;2023-02-20T11:08:39;46.85;;;24.15;;
53644;SDS011;39547;45.554;12.068;2023-02-20T11:14:42;39.72;;;19.73;;
53644;SDS011;39547;45.554;12.068;2023-02-20T11:20:48;42.17;;;21.02;;
53644;SDS011;39547;45.554;12.068;2023-02-20T11:26:49;43.75;;;22.42;;
53644;SDS011;39547;45.554;12.068;2023-02-20T11:33:00;38.78;;;19.67;;
53644;SDS011;39547;45.554;12.068;2023-02-20T11:39:29;39.67;;;20.13;;
53644;SDS011;39547;45.554;12.068;2023-02-20T11:45:32;44.08;;;23.95;;
53644;SDS011;39547;45.554;12.068;2023-02-20T11:51:44;41.97;;;22.85;;
53644;SDS011;39547;45.554;12.068;2023-02-20T11:57:48;45.33;;;23.35;;
53644;SDS011;39547;45.554;12.068;2023-02-20T12:03:54;45.65;;;23.77;;
53644;SDS011;39547;45.554;12.068;2023-02-20T12:10:04;46.78;;;23.17;;
53644;SDS011;39547;45.554;12.068;2023-02-20T12:22:38;43.78;;;23.15;;
53644;SDS011;39547;45.554;12.068;2023-02-20T12:28:52;40.95;;;21.00;;
53644;SDS011;39547;45.554;12.068;2023-02-20T12:47:55;35.33;;;18.50;;
53644;SDS011;39547;45.554;12.068;2023-02-20T13:07:25;38.90;;;20.38;;
53644;SDS011;39547;45.554;12.068;2023-02-20T13:13:35;41.50;;;21.05;;
53644;SDS011;39547;45.554;12.068;2023-02-20T13:26:42;33.90;;;17.70;;
53644;SDS011;39547;45.554;12.068;2023-02-20T13:32:31;34.30;;;17.98;;
53644;SDS011;39547;45.554;12.068;2023-02-20T13:38:32;39.80;;;21.60;;
53644;SDS011;39547;45.554;12.068;2023-02-20T13:44:41;43.95;;;23.95;;
53644;SDS011;39547;45.554;12.068;2023-02-20T13:50:43;40.80;;;21.50;;
53644;SDS011;39547;45.554;12.068;2023-02-20T13:56:47;35.22;;;17.40;;
53644;SDS011;39547;45.554;12.068;2023-02-20T14:02:56;40.95;;;21.42;;
53644;SDS011;39547;45.554;12.068;2023-02-20T14:09:08;35.88;;;17.45;;
53644;SDS011;39547;45.554;12.068;2023-02-20T14:15:14;38.72;;;19.98;;
53644;SDS011;39547;45.554;12.068;2023-02-20T14:21:19;38.45;;;20.52;;
53644;SDS011;39547;45.554;12.068;2023-02-20T14:27:26;36.30;;;18.10;;
53644;SDS011;39547;45.554;12.068;2023-02-20T14:33:30;36.90;;;18.85;;
53644;SDS011;39547;45.554;12.068;2023-02-20T14:39:36;29.42;;;14.93;;
53644;SDS011;39547;45.554;12.068;2023-02-20T14:46:02;32.35;;;16.98;;
53644;SDS011;39547;45.554;12.068;2023-02-20T15:04:14;41.45;;;22.60;;
53644;SDS011;39547;45.554;12.068;2023-02-20T15:16:36;33.42;;;18.35;;
53644;SDS011;39547;45.554;12.068;2023-02-20T15:22:39;30.48;;;16.23;;
53644;SDS011;39547;45.554;12.068;2023-02-20T15:28:41;28.52;;;15.32;;
53644;SDS011;39547;45.554;12.068;2023-02-20T15:34:42;29.52;;;15.35;;
53644;SDS011;39547;45.554;12.068;2023-02-20T15:40:44;28.80;;;14.45;;
53644;SDS011;39547;45.554;12.068;2023-02-20T15:46:46;27.25;;;13.68;;
53644;SDS011;39547;45.554;12.068;2023-02-20T15:52:47;28.67;;;14.98;;
53644;SDS011;39547;45.554;12.068;2023-02-20T15:58:49;32.17;;;16.70;;
53644;SDS011;39547;45.554;12.068;2023-02-20T16:04:51;33.88;;;17.05;;
53644;SDS011;39547;45.554;12.068;2023-02-20T16:10:52;35.70;;;17.25;;
53644;SDS011;39547;45.554;12.068;2023-02-20T16:16:55;33.10;;;17.58;;
53644;SDS011;39547;45.554;12.068;2023-02-20T16:22:56;35.72;;;18.08;;
53644;SDS011;39547;45.554;12.068;2023-02-20T16:28:59;37.13;;;18.60;;
53644;SDS011;39547;45.554;12.068;2023-02-20T16:35:02;36.50;;;19.10;;
53644;SDS011;39547;45.554;12.068;2023-02-20T16:41:04;40.25;;;20.45;;
53644;SDS011;39547;45.554;12.068;2023-02-20T16:47:14;39.88;;;20.77;;
53644;SDS011;39547;45.554;12.068;2023-02-20T16:53:17;39.55;;;20.52;;
53644;SDS011;39547;45.554;12.068;2023-02-20T16:59:20;43.15;;;22.33;;
53644;SDS011;39547;45.554;12.068;2023-02-20T17:05:26;42.10;;;20.65;;
53644;SDS011;39547;45.554;12.068;2023-02-20T17:11:32;46.22;;;23.75;;
53644;SDS011;39547;45.554;12.068;2023-02-20T17:17:33;47.03;;;24.02;;
53644;SDS011;39547;45.554;12.068;2023-02-20T17:23:35;44.10;;;23.25;;
53644;SDS011;39547;45.554;12.068;2023-02-20T17:29:36;52.60;;;25.83;;
53644;SDS011;39547;45.554;12.068;2023-02-20T17:35:38;47.97;;;24.73;;
53644;SDS011;39547;45.554;12.068;2023-02-20T17:41:39;57.53;;;27.77;;
53644;SDS011;39547;45.554;12.068;2023-02-20T17:47:41;55.53;;;27.65;;
53644;SDS011;39547;45.554;12.068;2023-02-20T17:53:42;57.40;;;28.05;;
53644;SDS011;39547;45.554;12.068;2023-02-20T17:59:44;52.38;;;27.50;;
53644;SDS011;39547;45.554;12.068;2023-02-20T18:05:46;53.17;;;26.75;;
53644;SDS011;39547;45.554;12.068;2023-02-20T18:11:48;55.20;;;26.88;;
53644;SDS011;39547;45.554;12.068;2023-02-20T18:17:51;60.60;;;28.95;;
53644;SDS011;39547;45.554;12.068;2023-02-20T18:23:52;62.28;;;29.60;;
53644;SDS011;39547;45.554;12.068;2023-02-20T18:29:54;61.90;;;29.38;;
53644;SDS011;39547;45.554;12.068;2023-02-20T18:35:56;71.60;;;32.33;;
53644;SDS011;39547;45.554;12.068;2023-02-20T18:42:04;86.28;;;36.00;;
53644;SDS011;39547;45.554;12.068;2023-02-20T18:48:06;69.78;;;33.67;;
53644;SDS011;39547;45.554;12.068;2023-02-20T18:54:08;72.13;;;35.00;;
53644;SDS011;39547;45.554;12.068;2023-02-20T19:00:17;80.47;;;37.28;;
53644;SDS011;39547;45.554;12.068;2023-02-20T19:06:30;80.30;;;38.10;;
53644;SDS011;39547;45.554;12.068;2023-02-20T19:12:33;80.90;;;37.78;;
53644;SDS011;39547;45.554;12.068;2023-02-20T19:18:35;77.90;;;37.25;;
53644;SDS011;39547;45.554;12.068;2023-02-20T19:24:39;95.20;;;45.80;;
53644;SDS011;39547;45.554;12.068;2023-02-20T19:36:42;90.55;;;43.25;;
53644;SDS011;39547;45.554;12.068;2023-02-20T19:42:44;94.20;;;41.75;;
53644;SDS011;39547;45.554;12.068;2023-02-20T19:48:45;93.57;;;43.78;;
53644;SDS011;39547;45.554;12.068;2023-02-20T19:54:46;89.55;;;42.35;;
53644;SDS011;39547;45.554;12.068;2023-02-20T20:00:48;89.38;;;42.33;;
53644;SDS011;39547;45.554;12.068;2023-02-20T20:06:49;103.25;;;46.25;;
53644;SDS011;39547;45.554;12.068;2023-02-20T20:12:51;102.68;;;45.75;;
53644;SDS011;39547;45.554;12.068;2023-02-20T20:18:52;120.10;;;52.55;;
53644;SDS011;39547;45.554;12.068;2023-02-20T20:24:54;96.80;;;44.70;;
53644;SDS011;39547;45.554;12.068;2023-02-20T20:30:55;106.20;;;47.58;;
53644;SDS011;39547;45.554;12.068;2023-02-20T20:36:56;129.43;;;55.08;;
53644;SDS011;39547;45.554;12.068;2023-02-20T20:42:58;101.50;;;47.45;;
53644;SDS011;39547;45.554;12.068;2023-02-20T20:48:59;108.85;;;48.17;;
53644;SDS011;39547;45.554;12.068;2023-02-20T20:55:01;95.00;;;44.33;;
53644;SDS011;39547;45.554;12.068;2023-02-20T21:01:02;112.97;;;50.30;;
53644;SDS011;39547;45.554;12.068;2023-02-20T21:07:05;104.32;;;47.45;;
53644;SDS011;39547;45.554;12.068;2023-02-20T21:13:06;114.45;;;51.25;;
53644;SDS011;39547;45.554;12.068;2023-02-20T21:19:08;106.75;;;48.85;;
53644;SDS011;39547;45.554;12.068;2023-02-20T21:25:09;111.68;;;48.60;;
53644;SDS011;39547;45.554;12.068;2023-02-20T21:31:11;105.63;;;47.28;;
53644;SDS011;39547;45.554;12.068;2023-02-20T21:37:12;96.60;;;44.78;;
53644;SDS011;39547;45.554;12.068;2023-02-20T21:43:14;104.22;;;47.42;;
53644;SDS011;39547;45.554;12.068;2023-02-20T21:49:34;84.80;;;40.83;;
53644;SDS011;39547;45.554;12.068;2023-02-20T21:55:37;101.32;;;46.20;;
53644;SDS011;39547;45.554;12.068;2023-02-20T22:01:39;119.80;;;53.78;;
53644;SDS011;39547;45.554;12.068;2023-02-20T22:07:41;97.75;;;45.13;;
53644;SDS011;39547;45.554;12.068;2023-02-20T22:14:00;119.05;;;52.13;;
53644;SDS011;39547;45.554;12.068;2023-02-20T22:20:20;117.47;;;52.40;;
53644;SDS011;39547;45.554;12.068;2023-02-20T22:26:40;141.45;;;60.70;;
53644;SDS011;39547;45.554;12.068;2023-02-20T22:33:00;111.15;;;51.70;;
53644;SDS011;39547;45.554;12.068;2023-02-20T22:39:20;104.00;;;49.08;;
53644;SDS011;39547;45.554;12.068;2023-02-20T22:45:40;127.70;;;55.03;;
53644;SDS011;39547;45.554;12.068;2023-02-20T22:51:59;126.70;;;54.22;;
53644;SDS011;39547;45.554;12.068;2023-02-20T22:58:19;123.57;;;54.53;;
53644;SDS011;39547;45.554;12.068;2023-02-20T23:04:39;103.70;;;49.03;;
53644;SDS011;39547;45.554;12.068;2023-02-20T23:10:59;109.97;;;51.00;;
53644;SDS011;39547;45.554;12.068;2023-02-20T23:17:19;127.95;;;54.95;;
53644;SDS011;39547;45.554;12.068;2023-02-20T23:23:39;122.22;;;53.70;;
53644;SDS011;39547;45.554;12.068;2023-02-20T23:29:59;126.50;;;55.45;;
53644;SDS011;39547;45.554;12.068;2023-02-20T23:36:19;103.00;;;50.35;;
53644;SDS011;39547;45.554;12.068;2023-02-20T23:42:39;105.80;;;49.17;;
53644;SDS011;39547;45.554;12.068;2023-02-20T23:48:59;130.10;;;56.70;;
53644;SDS011;39547;45.554;12.068;2023-02-20T23:55:19;116.60;;;53.25;;
